sensor_id;sensor_type;location;lat;lon;timestamp;temperature;humidity
2024;DHT22;1016;48.770;9.154;2023-09-07T00:00:12;21.20;99.90
2024;DHT22;1016;48.770;9.154;2023-09-07T00:02:38;21.20;99.90
2024;DHT22;1016;48.770;9.154;2023-09-07T00:05:05;21.20;99.90
2024;DHT22;1016;48.770;9.154;2023-09-07T00:07:31;21.20;99.90
2024;DHT22;1016;48.770;9.154;2023-09-07T00:09:57;21.40;99.90
2024;DHT22;1016;48.770;9.154;2023-09-07T00:12:22;21.20;99.90
2024;DHT22;1016;48.770;9.154;2023-09-07T00:14:48;21.10;99.90
2024;DHT22;1016;48.770;9.154;2023-09-07T00:17:14;21.10;99.90
2024;DHT22;1016;48.770;9.154;2023-09-07T00:19:40;21.10;99.90
2024;DHT22;1016;48.770;9.154;2023-09-07T00:22:05;21.10;99.90
2024;DHT22;1016;48.770;9.154;2023-09-07T00:24:31;21.10;99.90
2024;DHT22;1016;48.770;9.154;2023-09-07T00:26:58;21.10;99.90
2024;DHT22;1016;48.770;9.154;2023-09-07T00:29:23;21.00;99.90
2024;DHT22;1016;48.770;9.154;2023-09-07T00:31:49;21.00;99.90
2024;DHT22;1016;48.770;9.154;2023-09-07T00:34:14;21.20;99.90
2024;DHT22;1016;48.770;9.154;2023-09-07T00:36:40;21.00;99.90
2024;DHT22;1016;48.770;9.154;2023-09-07T00:39:06;21.00;99.90
2024;DHT22;1016;48.770;9.154;2023-09-07T00:41:31;21.00;99.90
2024;DHT22;1016;48.770;9.154;2023-09-07T00:43:57;21.00;99.90
2024;DHT22;1016;48.770;9.154;2023-09-07T00:46:22;21.20;99.90
2024;DHT22;1016;48.770;9.154;2023-09-07T00:48:49;21.00;99.90
2024;DHT22;1016;48.770;9.154;2023-09-07T00:51:15;21.00;99.90
2024;DHT22;1016;48.770;9.154;2023-09-07T00:53:42;21.00;99.90
2024;DHT22;1016;48.770;9.154;2023-09-07T00:56:08;21.00;99.90
2024;DHT22;1016;48.770;9.154;2023-09-07T00:58:34;21.00;99.90
2024;DHT22;1016;48.770;9.154;2023-09-07T01:01:01;20.90;99.90
2024;DHT22;1016;48.770;9.154;2023-09-07T01:03:27;20.90;99.90
2024;DHT22;1016;48.770;9.154;2023-09-07T01:06:12;20.90;99.90
2024;DHT22;1016;48.770;9.154;2023-09-07T01:08:48;20.90;99.90
2024;DHT22;1016;48.770;9.154;2023-09-07T01:11:19;20.90;99.90
2024;DHT22;1016;48.770;9.154;2023-09-07T01:13:48;20.90;99.90
2024;DHT22;1016;48.770;9.154;2023-09-07T01:16:14;20.90;99.90
2024;DHT22;1016;48.770;9.154;2023-09-07T01:18:41;20.90;99.90
2024;DHT22;1016;48.770;9.154;2023-09-07T01:21:07;20.80;99.90
2024;DHT22;1016;48.770;9.154;2023-09-07T01:23:35;20.80;99.90
2024;DHT22;1016;48.770;9.154;2023-09-07T01:26:02;20.80;99.90
2024;DHT22;1016;48.770;9.154;2023-09-07T01:28:28;20.80;99.90
2024;DHT22;1016;48.770;9.154;2023-09-07T01:30:54;20.80;99.90
2024;DHT22;1016;48.770;9.154;2023-09-07T01:33:19;20.70;99.90
2024;DHT22;1016;48.770;9.154;2023-09-07T01:35:46;20.80;99.90
2024;DHT22;1016;48.770;9.154;2023-09-07T01:38:13;20.80;99.90
2024;DHT22;1016;48.770;9.154;2023-09-07T01:40:38;20.80;99.90
2024;DHT22;1016;48.770;9.154;2023-09-07T01:43:05;20.70;99.90
2024;DHT22;1016;48.770;9.154;2023-09-07T01:45:31;20.70;99.90
2024;DHT22;1016;48.770;9.154;2023-09-07T01:47:59;20.70;99.90
2024;DHT22;1016;48.770;9.154;2023-09-07T01:50:24;20.80;99.90
2024;DHT22;1016;48.770;9.154;2023-09-07T01:52:56;20.70;99.90
2024;DHT22;1016;48.770;9.154;2023-09-07T01:55:22;20.70;99.90
2024;DHT22;1016;48.770;9.154;2023-09-07T01:57:47;20.70;99.90
2024;DHT22;1016;48.770;9.154;2023-09-07T02:00:13;20.80;99.90
2024;DHT22;1016;48.770;9.154;2023-09-07T02:02:39;20.60;99.90
2024;DHT22;1016;48.770;9.154;2023-09-07T02:05:04;20.80;99.90
2024;DHT22;1016;48.770;9.154;2023-09-07T02:07:30;20.60;99.90
2024;DHT22;1016;48.770;9.154;2023-09-07T02:09:56;20.70;99.90
2024;DHT22;1016;48.770;9.154;2023-09-07T02:12:21;20.60;99.90
2024;DHT22;1016;48.770;9.154;2023-09-07T02:14:47;20.60;99.90
2024;DHT22;1016;48.770;9.154;2023-09-07T02:17:12;20.60;99.90
2024;DHT22;1016;48.770;9.154;2023-09-07T02:19:43;20.60;99.90
2024;DHT22;1016;48.770;9.154;2023-09-07T02:22:09;20.60;99.90
2024;DHT22;1016;48.770;9.154;2023-09-07T02:24:34;20.60;99.90
2024;DHT22;1016;48.770;9.154;2023-09-07T02:27:00;20.60;99.90
2024;DHT22;1016;48.770;9.154;2023-09-07T02:29:25;20.60;99.90
2024;DHT22;1016;48.770;9.154;2023-09-07T02:31:52;20.60;99.90
2024;DHT22;1016;48.770;9.154;2023-09-07T02:34:18;20.50;99.90
2024;DHT22;1016;48.770;9.154;2023-09-07T02:36:43;20.60;99.90
2024;DHT22;1016;48.770;9.154;2023-09-07T02:39:09;20.50;99.90
2024;DHT22;1016;48.770;9.154;2023-09-07T02:41:36;20.50;99.90
2024;DHT22;1016;48.770;9.154;2023-09-07T02:44:02;20.50;99.90
2024;DHT22;1016;48.770;9.154;2023-09-07T02:46:28;20.50;99.90
2024;DHT22;1016;48.770;9.154;2023-09-07T02:48:54;20.50;99.90
2024;DHT22;1016;48.770;9.154;2023-09-07T02:51:24;20.40;99.90
2024;DHT22;1016;48.770;9.154;2023-09-07T02:53:51;20.40;99.90
2024;DHT22;1016;48.770;9.154;2023-09-07T02:56:18;20.40;99.90
2024;DHT22;1016;48.770;9.154;2023-09-07T02:58:46;20.40;99.90
2024;DHT22;1016;48.770;9.154;2023-09-07T03:01:11;20.40;99.90
2024;DHT22;1016;48.770;9.154;2023-09-07T03:03:38;20.40;99.90
2024;DHT22;1016;48.770;9.154;2023-09-07T03:06:10;20.50;99.90
2024;DHT22;1016;48.770;9.154;2023-09-07T03:08:36;20.40;99.90
2024;DHT22;1016;48.770;9.154;2023-09-07T03:11:05;20.40;99.90
2024;DHT22;1016;48.770;9.154;2023-09-07T03:13:31;20.40;99.90
2024;DHT22;1016;48.770;9.154;2023-09-07T03:15:57;20.40;99.90
2024;DHT22;1016;48.770;9.154;2023-09-07T03:18:22;20.50;99.90
2024;DHT22;1016;48.770;9.154;2023-09-07T03:20:49;20.30;99.90
2024;DHT22;1016;48.770;9.154;2023-09-07T03:23:15;20.30;99.90
2024;DHT22;1016;48.770;9.154;2023-09-07T03:25:40;20.30;99.90
2024;DHT22;1016;48.770;9.154;2023-09-07T03:28:06;20.30;99.90
2024;DHT22;1016;48.770;9.154;2023-09-07T03:30:33;20.30;99.90
2024;DHT22;1016;48.770;9.154;2023-09-07T03:32:58;20.30;99.90
2024;DHT22;1016;48.770;9.154;2023-09-07T03:35:24;20.30;99.90
2024;DHT22;1016;48.770;9.154;2023-09-07T03:37:49;20.30;99.90
2024;DHT22;1016;48.770;9.154;2023-09-07T03:40:15;20.40;99.90
2024;DHT22;1016;48.770;9.154;2023-09-07T03:42:41;20.30;99.90
2024;DHT22;1016;48.770;9.154;2023-09-07T03:45:07;20.20;99.90
2024;DHT22;1016;48.770;9.154;2023-09-07T03:47:33;20.20;99.90
2024;DHT22;1016;48.770;9.154;2023-09-07T03:49:59;20.20;99.90
2024;DHT22;1016;48.770;9.154;2023-09-07T03:52:25;20.20;99.90
2024;DHT22;1016;48.770;9.154;2023-09-07T03:54:54;20.20;99.90
2024;DHT22;1016;48.770;9.154;2023-09-07T03:57:20;20.20;99.90
2024;DHT22;1016;48.770;9.154;2023-09-07T03:59:46;20.20;99.90
2024;DHT22;1016;48.770;9.154;2023-09-07T04:02:11;20.20;99.90
2024;DHT22;1016;48.770;9.154;2023-09-07T04:04:38;20.00;99.90
2024;DHT22;1016;48.770;9.154;2023-09-07T04:07:04;20.20;99.90
2024;DHT22;1016;48.770;9.154;2023-09-07T04:09:29;20.20;99.90
2024;DHT22;1016;48.770;9.154;2023-09-07T04:11:55;20.10;99.90
2024;DHT22;1016;48.770;9.154;2023-09-07T04:14:20;20.10;99.90
2024;DHT22;1016;48.770;9.154;2023-09-07T04:16:46;20.30;99.90
2024;DHT22;1016;48.770;9.154;2023-09-07T04:19:11;20.30;99.90
2024;DHT22;1016;48.770;9.154;2023-09-07T04:21:37;20.10;99.90
2024;DHT22;1016;48.770;9.154;2023-09-07T04:24:04;20.10;99.90
2024;DHT22;1016;48.770;9.154;2023-09-07T04:26:30;20.10;99.90
2024;DHT22;1016;48.770;9.154;2023-09-07T04:28:56;20.10;99.90
2024;DHT22;1016;48.770;9.154;2023-09-07T04:31:21;20.10;99.90
2024;DHT22;1016;48.770;9.154;2023-09-07T04:33:47;20.10;99.90
2024;DHT22;1016;48.770;9.154;2023-09-07T04:36:15;20.00;99.90
2024;DHT22;1016;48.770;9.154;2023-09-07T04:38:41;20.20;99.90
2024;DHT22;1016;48.770;9.154;2023-09-07T04:41:08;20.20;99.90
2024;DHT22;1016;48.770;9.154;2023-09-07T04:43:34;20.00;99.90
2024;DHT22;1016;48.770;9.154;2023-09-07T04:46:00;20.10;99.90
2024;DHT22;1016;48.770;9.154;2023-09-07T04:48:25;20.10;99.90
2024;DHT22;1016;48.770;9.154;2023-09-07T04:51:03;20.00;99.90
2024;DHT22;1016;48.770;9.154;2023-09-07T04:53:31;20.00;99.90
2024;DHT22;1016;48.770;9.154;2023-09-07T04:55:58;20.00;99.90
2024;DHT22;1016;48.770;9.154;2023-09-07T04:58:24;20.20;99.90
2024;DHT22;1016;48.770;9.154;2023-09-07T05:00:49;20.10;99.90
2024;DHT22;1016;48.770;9.154;2023-09-07T05:03:15;20.10;99.90
2024;DHT22;1016;48.770;9.154;2023-09-07T05:05:42;20.00;99.90
2024;DHT22;1016;48.770;9.154;2023-09-07T05:08:07;20.00;99.90
2024;DHT22;1016;48.770;9.154;2023-09-07T05:10:33;20.20;99.90
2024;DHT22;1016;48.770;9.154;2023-09-07T05:12:59;20.00;99.90
2024;DHT22;1016;48.770;9.154;2023-09-07T05:15:25;20.00;99.90
2024;DHT22;1016;48.770;9.154;2023-09-07T05:17:52;20.00;99.90
2024;DHT22;1016;48.770;9.154;2023-09-07T05:20:18;20.00;99.90
2024;DHT22;1016;48.770;9.154;2023-09-07T05:22:43;20.10;99.90
2024;DHT22;1016;48.770;9.154;2023-09-07T05:25:10;19.90;99.90
2024;DHT22;1016;48.770;9.154;2023-09-07T05:27:36;20.00;99.90
2024;DHT22;1016;48.770;9.154;2023-09-07T05:30:02;20.00;99.90
2024;DHT22;1016;48.770;9.154;2023-09-07T05:32:28;20.00;99.90
2024;DHT22;1016;48.770;9.154;2023-09-07T05:34:53;20.00;99.90
2024;DHT22;1016;48.770;9.154;2023-09-07T05:37:19;20.00;99.90
2024;DHT22;1016;48.770;9.154;2023-09-07T05:39:44;20.00;99.90
2024;DHT22;1016;48.770;9.154;2023-09-07T05:42:10;20.00;99.90
2024;DHT22;1016;48.770;9.154;2023-09-07T05:44:36;20.00;99.90
2024;DHT22;1016;48.770;9.154;2023-09-07T05:47:03;20.00;99.90
2024;DHT22;1016;48.770;9.154;2023-09-07T05:49:29;20.00;99.90
2024;DHT22;1016;48.770;9.154;2023-09-07T05:51:55;20.00;99.90
2024;DHT22;1016;48.770;9.154;2023-09-07T05:54:22;20.00;99.90
2024;DHT22;1016;48.770;9.154;2023-09-07T05:56:47;20.00;99.90
2024;DHT22;1016;48.770;9.154;2023-09-07T05:59:13;20.00;99.90
2024;DHT22;1016;48.770;9.154;2023-09-07T06:01:39;20.20;99.90
2024;DHT22;1016;48.770;9.154;2023-09-07T06:04:06;20.00;99.90
2024;DHT22;1016;48.770;9.154;2023-09-07T06:06:31;20.00;99.90
2024;DHT22;1016;48.770;9.154;2023-09-07T06:08:57;20.00;99.90
2024;DHT22;1016;48.770;9.154;2023-09-07T06:11:24;20.10;99.90
2024;DHT22;1016;48.770;9.154;2023-09-07T06:13:50;20.10;99.90
2024;DHT22;1016;48.770;9.154;2023-09-07T06:16:16;20.10;99.90
2024;DHT22;1016;48.770;9.154;2023-09-07T06:18:41;20.10;99.90
2024;DHT22;1016;48.770;9.154;2023-09-07T06:21:07;20.20;99.90
2024;DHT22;1016;48.770;9.154;2023-09-07T06:23:33;20.10;99.90
2024;DHT22;1016;48.770;9.154;2023-09-07T06:26:00;20.10;99.90
2024;DHT22;1016;48.770;9.154;2023-09-07T06:28:26;20.30;99.90
2024;DHT22;1016;48.770;9.154;2023-09-07T06:30:52;20.40;99.90
2024;DHT22;1016;48.770;9.154;2023-09-07T06:33:17;20.20;99.90
2024;DHT22;1016;48.770;9.154;2023-09-07T06:35:43;20.20;99.90
2024;DHT22;1016;48.770;9.154;2023-09-07T06:38:19;20.20;99.90
2024;DHT22;1016;48.770;9.154;2023-09-07T06:40:48;20.30;99.90
2024;DHT22;1016;48.770;9.154;2023-09-07T06:43:14;20.30;99.90
2024;DHT22;1016;48.770;9.154;2023-09-07T06:45:46;20.40;99.90
2024;DHT22;1016;48.770;9.154;2023-09-07T06:48:11;20.10;99.90
2024;DHT22;1016;48.770;9.154;2023-09-07T06:50:38;20.50;99.90
2024;DHT22;1016;48.770;9.154;2023-09-07T06:53:04;20.40;99.90
2024;DHT22;1016;48.770;9.154;2023-09-07T06:55:30;20.30;99.90
2024;DHT22;1016;48.770;9.154;2023-09-07T06:58:00;20.40;99.90
2024;DHT22;1016;48.770;9.154;2023-09-07T07:00:26;20.40;99.90
2024;DHT22;1016;48.770;9.154;2023-09-07T07:02:52;20.50;99.90
2024;DHT22;1016;48.770;9.154;2023-09-07T07:05:18;20.40;99.90
2024;DHT22;1016;48.770;9.154;2023-09-07T07:07:44;20.60;99.90
2024;DHT22;1016;48.770;9.154;2023-09-07T07:10:09;20.40;99.90
2024;DHT22;1016;48.770;9.154;2023-09-07T07:12:35;20.60;99.90
2024;DHT22;1016;48.770;9.154;2023-09-07T07:15:04;20.50;99.90
2024;DHT22;1016;48.770;9.154;2023-09-07T07:17:30;20.50;99.90
2024;DHT22;1016;48.770;9.154;2023-09-07T07:19:55;20.60;99.90
2024;DHT22;1016;48.770;9.154;2023-09-07T07:22:21;20.50;99.90
2024;DHT22;1016;48.770;9.154;2023-09-07T07:24:47;20.60;99.90
2024;DHT22;1016;48.770;9.154;2023-09-07T07:27:12;20.60;99.90
2024;DHT22;1016;48.770;9.154;2023-09-07T07:29:38;20.60;99.90
2024;DHT22;1016;48.770;9.154;2023-09-07T07:32:04;20.70;99.90
2024;DHT22;1016;48.770;9.154;2023-09-07T07:34:30;20.60;99.90
2024;DHT22;1016;48.770;9.154;2023-09-07T07:36:55;20.80;99.90
2024;DHT22;1016;48.770;9.154;2023-09-07T07:39:23;20.80;99.90
2024;DHT22;1016;48.770;9.154;2023-09-07T07:41:53;20.50;99.90
2024;DHT22;1016;48.770;9.154;2023-09-07T07:44:18;20.70;99.90
2024;DHT22;1016;48.770;9.154;2023-09-07T07:46:44;20.70;99.90
2024;DHT22;1016;48.770;9.154;2023-09-07T07:49:10;20.70;99.90
2024;DHT22;1016;48.770;9.154;2023-09-07T07:51:36;20.80;99.90
2024;DHT22;1016;48.770;9.154;2023-09-07T07:54:05;20.90;99.90
2024;DHT22;1016;48.770;9.154;2023-09-07T07:56:31;20.90;99.90
2024;DHT22;1016;48.770;9.154;2023-09-07T07:58:59;20.90;99.90
2024;DHT22;1016;48.770;9.154;2023-09-07T08:01:25;20.90;99.90
2024;DHT22;1016;48.770;9.154;2023-09-07T08:03:52;20.90;99.90
2024;DHT22;1016;48.770;9.154;2023-09-07T08:06:17;20.80;99.90
2024;DHT22;1016;48.770;9.154;2023-09-07T08:08:43;20.80;99.90
2024;DHT22;1016;48.770;9.154;2023-09-07T08:11:08;20.90;99.90
2024;DHT22;1016;48.770;9.154;2023-09-07T08:13:35;20.90;99.90
2024;DHT22;1016;48.770;9.154;2023-09-07T08:16:01;20.90;99.90
2024;DHT22;1016;48.770;9.154;2023-09-07T08:18:28;20.80;99.90
2024;DHT22;1016;48.770;9.154;2023-09-07T08:20:57;20.80;99.90
2024;DHT22;1016;48.770;9.154;2023-09-07T08:23:23;20.90;99.90
2024;DHT22;1016;48.770;9.154;2023-09-07T08:25:51;21.00;99.90
2024;DHT22;1016;48.770;9.154;2023-09-07T08:28:16;21.10;99.90
2024;DHT22;1016;48.770;9.154;2023-09-07T08:30:44;21.00;99.90
2024;DHT22;1016;48.770;9.154;2023-09-07T08:33:10;21.00;99.90
2024;DHT22;1016;48.770;9.154;2023-09-07T08:35:36;21.00;99.90
2024;DHT22;1016;48.770;9.154;2023-09-07T08:38:09;21.00;99.90
2024;DHT22;1016;48.770;9.154;2023-09-07T08:40:35;21.00;99.90
2024;DHT22;1016;48.770;9.154;2023-09-07T08:43:03;21.10;99.90
2024;DHT22;1016;48.770;9.154;2023-09-07T08:45:30;21.10;99.90
2024;DHT22;1016;48.770;9.154;2023-09-07T08:47:59;21.20;99.90
2024;DHT22;1016;48.770;9.154;2023-09-07T08:50:25;21.10;99.90
2024;DHT22;1016;48.770;9.154;2023-09-07T08:52:52;21.20;99.90
2024;DHT22;1016;48.770;9.154;2023-09-07T08:55:19;21.10;99.90
2024;DHT22;1016;48.770;9.154;2023-09-07T08:57:52;21.20;99.90
2024;DHT22;1016;48.770;9.154;2023-09-07T09:00:18;21.30;99.90
2024;DHT22;1016;48.770;9.154;2023-09-07T09:02:48;21.20;99.90
2024;DHT22;1016;48.770;9.154;2023-09-07T09:05:15;21.30;99.90
2024;DHT22;1016;48.770;9.154;2023-09-07T09:07:40;21.30;99.90
2024;DHT22;1016;48.770;9.154;2023-09-07T09:10:07;21.30;99.90
2024;DHT22;1016;48.770;9.154;2023-09-07T09:12:47;21.20;99.90
2024;DHT22;1016;48.770;9.154;2023-09-07T09:15:22;21.30;99.90
2024;DHT22;1016;48.770;9.154;2023-09-07T09:17:48;21.30;99.90
2024;DHT22;1016;48.770;9.154;2023-09-07T09:20:23;21.40;99.90
2024;DHT22;1016;48.770;9.154;2023-09-07T09:22:53;21.30;99.90
2024;DHT22;1016;48.770;9.154;2023-09-07T09:25:30;21.30;99.90
2024;DHT22;1016;48.770;9.154;2023-09-07T09:28:08;21.50;99.90
2024;DHT22;1016;48.770;9.154;2023-09-07T09:30:35;21.50;99.90
2024;DHT22;1016;48.770;9.154;2023-09-07T09:33:02;21.40;99.90
2024;DHT22;1016;48.770;9.154;2023-09-07T09:35:28;21.40;99.90
2024;DHT22;1016;48.770;9.154;2023-09-07T09:38:01;21.50;99.90
2024;DHT22;1016;48.770;9.154;2023-09-07T09:40:33;21.60;99.90
2024;DHT22;1016;48.770;9.154;2023-09-07T09:43:03;21.40;99.90
2024;DHT22;1016;48.770;9.154;2023-09-07T09:45:39;21.40;99.90
2024;DHT22;1016;48.770;9.154;2023-09-07T09:48:16;21.60;99.90
2024;DHT22;1016;48.770;9.154;2023-09-07T09:50:46;21.60;99.90
2024;DHT22;1016;48.770;9.154;2023-09-07T09:53:20;21.50;99.90
2024;DHT22;1016;48.770;9.154;2023-09-07T09:55:50;21.50;99.90
2024;DHT22;1016;48.770;9.154;2023-09-07T09:58:19;21.60;99.90
2024;DHT22;1016;48.770;9.154;2023-09-07T10:00:47;21.60;99.90
2024;DHT22;1016;48.770;9.154;2023-09-07T10:03:31;21.60;99.90
2024;DHT22;1016;48.770;9.154;2023-09-07T10:06:18;21.70;99.90
2024;DHT22;1016;48.770;9.154;2023-09-07T10:09:02;21.60;99.90
2024;DHT22;1016;48.770;9.154;2023-09-07T10:11:37;21.60;99.90
2024;DHT22;1016;48.770;9.154;2023-09-07T10:14:08;21.80;99.90
2024;DHT22;1016;48.770;9.154;2023-09-07T10:16:54;21.60;99.90
2024;DHT22;1016;48.770;9.154;2023-09-07T10:19:25;21.50;99.90
2024;DHT22;1016;48.770;9.154;2023-09-07T10:21:58;21.50;99.90
2024;DHT22;1016;48.770;9.154;2023-09-07T10:24:34;21.70;99.90
2024;DHT22;1016;48.770;9.154;2023-09-07T10:27:06;21.70;99.90
2024;DHT22;1016;48.770;9.154;2023-09-07T10:29:46;21.80;99.90
2024;DHT22;1016;48.770;9.154;2023-09-07T10:32:12;21.80;99.90
2024;DHT22;1016;48.770;9.154;2023-09-07T10:34:40;21.80;99.90
2024;DHT22;1016;48.770;9.154;2023-09-07T10:37:13;21.90;99.90
2024;DHT22;1016;48.770;9.154;2023-09-07T10:39:40;21.90;99.90
2024;DHT22;1016;48.770;9.154;2023-09-07T10:42:08;21.90;99.90
2024;DHT22;1016;48.770;9.154;2023-09-07T10:44:45;22.00;99.90
2024;DHT22;1016;48.770;9.154;2023-09-07T10:47:10;22.00;99.90
2024;DHT22;1016;48.770;9.154;2023-09-07T10:49:38;22.10;99.90
2024;DHT22;1016;48.770;9.154;2023-09-07T10:52:04;22.00;99.90
2024;DHT22;1016;48.770;9.154;2023-09-07T10:54:30;22.00;99.90
2024;DHT22;1016;48.770;9.154;2023-09-07T10:56:56;22.00;99.90
2024;DHT22;1016;48.770;9.154;2023-09-07T10:59:23;22.00;99.90
2024;DHT22;1016;48.770;9.154;2023-09-07T11:01:54;21.90;99.90
2024;DHT22;1016;48.770;9.154;2023-09-07T11:04:22;22.10;99.90
2024;DHT22;1016;48.770;9.154;2023-09-07T11:06:48;22.30;99.90
2024;DHT22;1016;48.770;9.154;2023-09-07T11:09:15;22.20;99.90
2024;DHT22;1016;48.770;9.154;2023-09-07T11:11:46;22.20;99.90
2024;DHT22;1016;48.770;9.154;2023-09-07T11:14:13;22.20;99.90
2024;DHT22;1016;48.770;9.154;2023-09-07T11:16:40;22.30;99.90
2024;DHT22;1016;48.770;9.154;2023-09-07T11:19:06;22.20;99.90
2024;DHT22;1016;48.770;9.154;2023-09-07T11:21:35;22.20;99.90
2024;DHT22;1016;48.770;9.154;2023-09-07T11:24:01;22.20;99.90
2024;DHT22;1016;48.770;9.154;2023-09-07T11:26:42;22.30;99.90
2024;DHT22;1016;48.770;9.154;2023-09-07T11:29:09;22.30;99.90
2024;DHT22;1016;48.770;9.154;2023-09-07T11:31:35;22.30;99.90
2024;DHT22;1016;48.770;9.154;2023-09-07T11:34:01;22.30;99.90
2024;DHT22;1016;48.770;9.154;2023-09-07T11:36:27;22.30;99.90
2024;DHT22;1016;48.770;9.154;2023-09-07T11:38:57;22.20;99.90
2024;DHT22;1016;48.770;9.154;2023-09-07T11:41:23;22.40;99.90
2024;DHT22;1016;48.770;9.154;2023-09-07T11:43:51;22.40;99.90
2024;DHT22;1016;48.770;9.154;2023-09-07T11:46:17;22.40;99.90
2024;DHT22;1016;48.770;9.154;2023-09-07T11:48:43;22.40;99.90
2024;DHT22;1016;48.770;9.154;2023-09-07T11:51:09;22.40;99.90
2024;DHT22;1016;48.770;9.154;2023-09-07T11:53:38;22.50;99.90
2024;DHT22;1016;48.770;9.154;2023-09-07T11:56:04;22.40;99.90
2024;DHT22;1016;48.770;9.154;2023-09-07T11:58:29;22.40;99.90
2024;DHT22;1016;48.770;9.154;2023-09-07T12:00:58;22.40;99.90
2024;DHT22;1016;48.770;9.154;2023-09-07T12:03:34;22.50;99.90
2024;DHT22;1016;48.770;9.154;2023-09-07T12:06:00;22.50;99.90
2024;DHT22;1016;48.770;9.154;2023-09-07T12:08:26;22.50;99.90
2024;DHT22;1016;48.770;9.154;2023-09-07T12:10:51;22.60;99.90
2024;DHT22;1016;48.770;9.154;2023-09-07T12:13:17;22.60;99.90
2024;DHT22;1016;48.770;9.154;2023-09-07T12:15:43;22.70;99.90
2024;DHT22;1016;48.770;9.154;2023-09-07T12:18:08;22.70;99.90
2024;DHT22;1016;48.770;9.154;2023-09-07T12:20:35;22.70;99.90
2024;DHT22;1016;48.770;9.154;2023-09-07T12:23:01;22.60;99.90
2024;DHT22;1016;48.770;9.154;2023-09-07T12:25:27;22.70;99.90
2024;DHT22;1016;48.770;9.154;2023-09-07T12:27:53;22.70;99.90
2024;DHT22;1016;48.770;9.154;2023-09-07T12:30:19;22.70;99.90
2024;DHT22;1016;48.770;9.154;2023-09-07T12:32:46;22.60;99.90
2024;DHT22;1016;48.770;9.154;2023-09-07T12:35:12;22.70;99.90
2024;DHT22;1016;48.770;9.154;2023-09-07T12:37:38;22.70;99.90
2024;DHT22;1016;48.770;9.154;2023-09-07T12:40:04;22.80;99.90
2024;DHT22;1016;48.770;9.154;2023-09-07T12:42:42;22.70;99.90
2024;DHT22;1016;48.770;9.154;2023-09-07T12:45:11;22.70;99.90
2024;DHT22;1016;48.770;9.154;2023-09-07T12:47:40;22.90;99.90
2024;DHT22;1016;48.770;9.154;2023-09-07T12:50:06;22.90;99.90
2024;DHT22;1016;48.770;9.154;2023-09-07T12:52:33;22.80;99.90
2024;DHT22;1016;48.770;9.154;2023-09-07T12:55:18;22.80;99.90
2024;DHT22;1016;48.770;9.154;2023-09-07T12:57:50;22.80;99.90
2024;DHT22;1016;48.770;9.154;2023-09-07T13:00:15;22.80;99.90
2024;DHT22;1016;48.770;9.154;2023-09-07T13:02:41;22.90;99.90
2024;DHT22;1016;48.770;9.154;2023-09-07T13:05:16;22.90;99.90
2024;DHT22;1016;48.770;9.154;2023-09-07T13:07:42;22.80;99.90
2024;DHT22;1016;48.770;9.154;2023-09-07T13:10:09;22.80;99.90
2024;DHT22;1016;48.770;9.154;2023-09-07T13:12:36;22.90;99.90
2024;DHT22;1016;48.770;9.154;2023-09-07T13:15:06;22.80;99.90
2024;DHT22;1016;48.770;9.154;2023-09-07T13:17:36;22.90;99.90
2024;DHT22;1016;48.770;9.154;2023-09-07T13:20:02;22.90;99.90
2024;DHT22;1016;48.770;9.154;2023-09-07T13:22:28;22.90;99.90
2024;DHT22;1016;48.770;9.154;2023-09-07T13:24:54;22.90;99.90
2024;DHT22;1016;48.770;9.154;2023-09-07T13:27:19;22.90;99.90
2024;DHT22;1016;48.770;9.154;2023-09-07T13:29:45;23.00;99.90
2024;DHT22;1016;48.770;9.154;2023-09-07T13:32:11;23.10;99.90
2024;DHT22;1016;48.770;9.154;2023-09-07T13:34:36;23.00;99.90
2024;DHT22;1016;48.770;9.154;2023-09-07T13:37:02;23.10;99.90
2024;DHT22;1016;48.770;9.154;2023-09-07T13:39:28;23.00;99.90
2024;DHT22;1016;48.770;9.154;2023-09-07T13:41:54;23.10;99.90
2024;DHT22;1016;48.770;9.154;2023-09-07T13:44:21;23.10;99.90
2024;DHT22;1016;48.770;9.154;2023-09-07T13:46:47;23.00;99.90
2024;DHT22;1016;48.770;9.154;2023-09-07T13:49:13;23.10;99.90
2024;DHT22;1016;48.770;9.154;2023-09-07T13:51:42;23.00;99.90
2024;DHT22;1016;48.770;9.154;2023-09-07T13:54:09;23.00;99.90
2024;DHT22;1016;48.770;9.154;2023-09-07T13:56:37;23.10;99.90
2024;DHT22;1016;48.770;9.154;2023-09-07T13:59:03;23.10;99.90
2024;DHT22;1016;48.770;9.154;2023-09-07T14:01:28;23.20;99.90
2024;DHT22;1016;48.770;9.154;2023-09-07T14:03:54;23.00;99.90
2024;DHT22;1016;48.770;9.154;2023-09-07T14:06:20;23.10;99.90
2024;DHT22;1016;48.770;9.154;2023-09-07T14:08:49;23.10;99.90
2024;DHT22;1016;48.770;9.154;2023-09-07T14:11:16;23.10;99.90
2024;DHT22;1016;48.770;9.154;2023-09-07T14:13:47;23.20;99.90
2024;DHT22;1016;48.770;9.154;2023-09-07T14:16:19;23.10;99.90
2024;DHT22;1016;48.770;9.154;2023-09-07T14:18:45;23.20;99.90
2024;DHT22;1016;48.770;9.154;2023-09-07T14:21:15;23.20;99.90
2024;DHT22;1016;48.770;9.154;2023-09-07T14:23:41;23.30;99.90
2024;DHT22;1016;48.770;9.154;2023-09-07T14:26:08;23.30;99.90
2024;DHT22;1016;48.770;9.154;2023-09-07T14:28:37;23.30;99.90
2024;DHT22;1016;48.770;9.154;2023-09-07T14:31:06;23.10;99.90
2024;DHT22;1016;48.770;9.154;2023-09-07T14:33:33;23.30;99.90
2024;DHT22;1016;48.770;9.154;2023-09-07T14:35:59;23.40;99.90
2024;DHT22;1016;48.770;9.154;2023-09-07T14:38:25;23.20;99.90
2024;DHT22;1016;48.770;9.154;2023-09-07T14:40:56;23.30;99.90
2024;DHT22;1016;48.770;9.154;2023-09-07T14:43:22;23.50;99.90
2024;DHT22;1016;48.770;9.154;2023-09-07T14:45:48;23.40;99.90
2024;DHT22;1016;48.770;9.154;2023-09-07T14:48:14;23.50;99.90
2024;DHT22;1016;48.770;9.154;2023-09-07T14:50:39;23.60;99.90
2024;DHT22;1016;48.770;9.154;2023-09-07T14:53:05;23.60;99.90
2024;DHT22;1016;48.770;9.154;2023-09-07T14:55:31;23.60;99.90
2024;DHT22;1016;48.770;9.154;2023-09-07T14:58:00;23.50;99.90
2024;DHT22;1016;48.770;9.154;2023-09-07T15:00:26;23.50;99.90
2024;DHT22;1016;48.770;9.154;2023-09-07T15:02:58;23.40;99.90
2024;DHT22;1016;48.770;9.154;2023-09-07T15:05:23;23.70;99.90
2024;DHT22;1016;48.770;9.154;2023-09-07T15:07:52;23.60;99.90
2024;DHT22;1016;48.770;9.154;2023-09-07T15:10:18;23.70;99.90
2024;DHT22;1016;48.770;9.154;2023-09-07T15:12:46;23.60;99.90
2024;DHT22;1016;48.770;9.154;2023-09-07T15:15:12;23.70;99.90
2024;DHT22;1016;48.770;9.154;2023-09-07T15:17:43;23.60;99.90
2024;DHT22;1016;48.770;9.154;2023-09-07T15:20:09;23.70;99.90
2024;DHT22;1016;48.770;9.154;2023-09-07T15:22:35;23.60;99.90
2024;DHT22;1016;48.770;9.154;2023-09-07T15:25:02;23.60;99.90
2024;DHT22;1016;48.770;9.154;2023-09-07T15:27:27;23.60;99.90
2024;DHT22;1016;48.770;9.154;2023-09-07T15:29:53;23.60;99.90
2024;DHT22;1016;48.770;9.154;2023-09-07T15:32:19;23.70;99.90
2024;DHT22;1016;48.770;9.154;2023-09-07T15:34:45;23.70;99.90
2024;DHT22;1016;48.770;9.154;2023-09-07T15:37:10;23.80;99.90
2024;DHT22;1016;48.770;9.154;2023-09-07T15:39:36;23.50;99.90
2024;DHT22;1016;48.770;9.154;2023-09-07T15:42:02;23.70;99.90
2024;DHT22;1016;48.770;9.154;2023-09-07T15:44:27;23.70;99.90
2024;DHT22;1016;48.770;9.154;2023-09-07T15:46:57;23.80;99.90
2024;DHT22;1016;48.770;9.154;2023-09-07T15:49:23;23.60;99.90
2024;DHT22;1016;48.770;9.154;2023-09-07T15:51:51;23.80;99.90
2024;DHT22;1016;48.770;9.154;2023-09-07T15:54:17;23.60;99.90
2024;DHT22;1016;48.770;9.154;2023-09-07T15:56:43;23.70;99.90
2024;DHT22;1016;48.770;9.154;2023-09-07T15:59:09;23.50;99.90
2024;DHT22;1016;48.770;9.154;2023-09-07T16:01:34;23.70;99.90